sensor_id;sensor_type;location;lat;lon;timestamp;pressure;altitude;pressure_sealevel;temperature;humidity
61786;BME280;47692;53.714;11.372;2022-12-07T00:00:25;100615.38;;;-0.40;100.00
61786;BME280;47692;53.714;11.372;2022-12-07T00:02:53;100616.22;;;-0.41;100.00
61786;BME280;47692;53.714;11.372;2022-12-07T00:05:18;100607.56;;;-0.46;100.00
61786;BME280;47692;53.714;11.372;2022-12-07T00:07:43;100604.13;;;-0.45;100.00
61786;BME280;47692;53.714;11.372;2022-12-07T00:10:09;100600.69;;;-0.47;100.00
61786;BME280;47692;53.714;11.372;2022-12-07T00:12:34;100593.88;;;-0.45;100.00
61786;BME280;47692;53.714;11.372;2022-12-07T00:14:59;100586.19;;;-0.45;100.00
61786;BME280;47692;53.714;11.372;2022-12-07T00:17:24;100577.03;;;-0.34;100.00
61786;BME280;47692;53.714;11.372;2022-12-07T00:19:50;100581.06;;;-0.45;100.00
61786;BME280;47692;53.714;11.372;2022-12-07T00:22:15;100566.66;;;-0.40;100.00
61786;BME280;47692;53.714;11.372;2022-12-07T00:24:40;100564.09;;;-0.40;100.00
61786;BME280;47692;53.714;11.372;2022-12-07T00:27:05;100551.31;;;-0.37;100.00
61786;BME280;47692;53.714;11.372;2022-12-07T00:29:31;100561.56;;;-0.37;100.00
61786;BME280;47692;53.714;11.372;2022-12-07T00:31:56;100550.50;;;-0.34;100.00
61786;BME280;47692;53.714;11.372;2022-12-07T00:34:21;100548.94;;;-0.27;100.00
61786;BME280;47692;53.714;11.372;2022-12-07T00:36:47;100539.53;;;-0.25;100.00
61786;BME280;47692;53.714;11.372;2022-12-07T00:39:13;100531.75;;;-0.30;100.00
61786;BME280;47692;53.714;11.372;2022-12-07T00:41:39;100530.97;;;-0.27;100.00
61786;BME280;47692;53.714;11.372;2022-12-07T00:44:04;100524.09;;;-0.28;100.00
61786;BME280;47692;53.714;11.372;2022-12-07T00:46:30;100529.41;;;-0.18;100.00
61786;BME280;47692;53.714;11.372;2022-12-07T00:48:55;100531.03;;;-0.21;100.00
61786;BME280;47692;53.714;11.372;2022-12-07T00:51:23;100526.00;;;-0.18;100.00
61786;BME280;47692;53.714;11.372;2022-12-07T00:53:48;100531.16;;;-0.15;100.00
61786;BME280;47692;53.714;11.372;2022-12-07T00:56:15;100521.78;;;-0.14;100.00
61786;BME280;47692;53.714;11.372;2022-12-07T00:58:41;100521.00;;;-0.09;100.00
61786;BME280;47692;53.714;11.372;2022-12-07T01:01:07;100507.34;;;-0.08;100.00
61786;BME280;47692;53.714;11.372;2022-12-07T01:03:33;100512.56;;;-0.02;100.00
61786;BME280;47692;53.714;11.372;2022-12-07T01:05:58;100507.56;;;0.05;100.00
61786;BME280;47692;53.714;11.372;2022-12-07T01:08:25;100498.22;;;0.10;100.00
61786;BME280;47692;53.714;11.372;2022-12-07T01:11:05;100494.06;;;0.15;100.00
61786;BME280;47692;53.714;11.372;2022-12-07T01:13:32;100489.81;;;0.19;100.00
61786;BME280;47692;53.714;11.372;2022-12-07T01:16:00;100493.25;;;0.21;100.00
61786;BME280;47692;53.714;11.372;2022-12-07T01:18:27;100494.09;;;0.20;100.00
61786;BME280;47692;53.714;11.372;2022-12-07T01:23:28;100484.03;;;0.34;100.00
61786;BME280;47692;53.714;11.372;2022-12-07T01:25:55;100480.69;;;0.38;100.00
61786;BME280;47692;53.714;11.372;2022-12-07T01:28:20;100484.94;;;0.36;100.00
61786;BME280;47692;53.714;11.372;2022-12-07T01:30:57;100473.75;;;0.34;100.00
61786;BME280;47692;53.714;11.372;2022-12-07T01:33:23;100475.53;;;0.36;100.00
61786;BME280;47692;53.714;11.372;2022-12-07T01:35:48;100475.56;;;0.38;100.00
61786;BME280;47692;53.714;11.372;2022-12-07T01:38:13;100466.13;;;0.38;100.00
61786;BME280;47692;53.714;11.372;2022-12-07T01:40:39;100464.50;;;0.43;100.00
61786;BME280;47692;53.714;11.372;2022-12-07T01:43:14;100473.94;;;0.46;100.00
61786;BME280;47692;53.714;11.372;2022-12-07T01:45:41;100475.75;;;0.50;100.00
61786;BME280;47692;53.714;11.372;2022-12-07T01:48:09;100484.38;;;0.55;100.00
61786;BME280;47692;53.714;11.372;2022-12-07T01:50:35;100491.34;;;0.62;100.00
61786;BME280;47692;53.714;11.372;2022-12-07T01:53:05;100480.16;;;0.59;100.00
61786;BME280;47692;53.714;11.372;2022-12-07T01:55:31;100478.50;;;0.64;100.00
61786;BME280;47692;53.714;11.372;2022-12-07T01:57:57;100486.28;;;0.69;100.00
61786;BME280;47692;53.714;11.372;2022-12-07T02:00:23;100479.41;;;0.68;100.00
61786;BME280;47692;53.714;11.372;2022-12-07T02:03:13;100478.59;;;0.72;100.00
61786;BME280;47692;53.714;11.372;2022-12-07T02:05:42;100471.81;;;0.75;100.00
61786;BME280;47692;53.714;11.372;2022-12-07T02:08:09;100470.03;;;0.70;100.00
61786;BME280;47692;53.714;11.372;2022-12-07T02:10:35;100466.59;;;0.71;100.00
61786;BME280;47692;53.714;11.372;2022-12-07T02:13:16;100455.53;;;0.75;100.00
61786;BME280;47692;53.714;11.372;2022-12-07T02:21:47;100448.75;;;0.83;100.00
61786;BME280;47692;53.714;11.372;2022-12-07T02:30:03;100433.38;;;0.85;100.00
61786;BME280;47692;53.714;11.372;2022-12-07T02:35:21;100418.81;;;0.87;100.00
61786;BME280;47692;53.714;11.372;2022-12-07T02:38:03;100420.63;;;0.94;100.00
61786;BME280;47692;53.714;11.372;2022-12-07T02:40:43;100423.19;;;0.92;100.00
61786;BME280;47692;53.714;11.372;2022-12-07T02:43:53;100411.13;;;0.88;100.00
61786;BME280;47692;53.714;11.372;2022-12-07T02:46:23;100404.28;;;0.87;100.00
61786;BME280;47692;53.714;11.372;2022-12-07T02:48:52;100406.88;;;0.92;100.00
61786;BME280;47692;53.714;11.372;2022-12-07T02:51:19;100399.22;;;0.93;100.00
61786;BME280;47692;53.714;11.372;2022-12-07T02:53:46;100397.56;;;0.99;100.00
61786;BME280;47692;53.714;11.372;2022-12-07T02:56:28;100401.84;;;1.00;100.00
61786;BME280;47692;53.714;11.372;2022-12-07T02:59:02;100400.19;;;1.05;100.00
61786;BME280;47692;53.714;11.372;2022-12-07T03:01:45;100397.66;;;1.08;100.00
61786;BME280;47692;53.714;11.372;2022-12-07T03:04:22;100404.59;;;1.15;100.00
61786;BME280;47692;53.714;11.372;2022-12-07T03:07:18;100400.34;;;1.20;100.00
61786;BME280;47692;53.714;11.372;2022-12-07T03:10:03;100407.22;;;1.21;100.00
61786;BME280;47692;53.714;11.372;2022-12-07T03:12:41;100396.09;;;1.22;100.00
61786;BME280;47692;53.714;11.372;2022-12-07T03:15:15;100407.28;;;1.24;100.00
61786;BME280;47692;53.714;11.372;2022-12-07T03:17:44;100402.97;;;1.26;100.00
61786;BME280;47692;53.714;11.372;2022-12-07T03:20:13;100396.09;;;1.22;100.00
61786;BME280;47692;53.714;11.372;2022-12-07T03:22:40;100397.78;;;1.20;100.00
61786;BME280;47692;53.714;11.372;2022-12-07T03:25:10;100388.31;;;1.15;100.00
61786;BME280;47692;53.714;11.372;2022-12-07T03:27:42;100390.88;;;1.16;100.00
61786;BME280;47692;53.714;11.372;2022-12-07T03:30:13;100383.13;;;1.11;100.00
61786;BME280;47692;53.714;11.372;2022-12-07T03:32:53;100377.13;;;1.14;100.00
61786;BME280;47692;53.714;11.372;2022-12-07T03:35:25;100376.31;;;1.17;100.00
61786;BME280;47692;53.714;11.372;2022-12-07T03:37:58;100372.88;;;1.15;100.00
61786;BME280;47692;53.714;11.372;2022-12-07T03:40:34;100374.63;;;1.17;100.00
61786;BME280;47692;53.714;11.372;2022-12-07T03:43:00;100366.06;;;1.23;100.00
61786;BME280;47692;53.714;11.372;2022-12-07T03:48:36;100356.69;;;1.26;100.00
61786;BME280;47692;53.714;11.372;2022-12-07T03:51:26;100351.53;;;1.26;100.00
61786;BME280;47692;53.714;11.372;2022-12-07T03:53:59;100353.31;;;1.31;100.00
61786;BME280;47692;53.714;11.372;2022-12-07T03:56:27;100368.75;;;1.34;100.00
61786;BME280;47692;53.714;11.372;2022-12-07T03:58:54;100358.53;;;1.40;100.00
61786;BME280;47692;53.714;11.372;2022-12-07T04:01:19;100357.69;;;1.41;100.00
61786;BME280;47692;53.714;11.372;2022-12-07T04:03:45;100365.41;;;1.42;100.00
61786;BME280;47692;53.714;11.372;2022-12-07T04:06:10;100362.06;;;1.51;100.00
61786;BME280;47692;53.714;11.372;2022-12-07T04:08:36;100356.84;;;1.45;100.00
61786;BME280;47692;53.714;11.372;2022-12-07T04:11:02;100360.31;;;1.47;100.00
61786;BME280;47692;53.714;11.372;2022-12-07T04:13:27;100365.47;;;1.50;100.00
61786;BME280;47692;53.714;11.372;2022-12-07T04:15:52;100359.44;;;1.47;100.00
61786;BME280;47692;53.714;11.372;2022-12-07T04:18:18;100359.47;;;1.48;100.00
61786;BME280;47692;53.714;11.372;2022-12-07T04:20:43;100360.31;;;1.47;100.00
61786;BME280;47692;53.714;11.372;2022-12-07T04:23:09;100367.19;;;1.48;100.00
61786;BME280;47692;53.714;11.372;2022-12-07T04:25:34;100367.16;;;1.45;100.00
61786;BME280;47692;53.714;11.372;2022-12-07T04:28:03;100364.63;;;1.48;100.00
61786;BME280;47692;53.714;11.372;2022-12-07T04:30:29;100363.75;;;1.49;100.00
61786;BME280;47692;53.714;11.372;2022-12-07T04:32:54;100364.56;;;1.43;100.00
61786;BME280;47692;53.714;11.372;2022-12-07T04:35:19;100362.84;;;1.44;100.00
61786;BME280;47692;53.714;11.372;2022-12-07T04:37:44;100363.69;;;1.43;100.00
61786;BME280;47692;53.714;11.372;2022-12-07T04:40:10;100366.31;;;1.46;100.00
61786;BME280;47692;53.714;11.372;2022-12-07T04:42:37;100366.19;;;1.35;100.00
61786;BME280;47692;53.714;11.372;2022-12-07T04:45:02;100372.22;;;1.36;100.00
61786;BME280;47692;53.714;11.372;2022-12-07T04:47:27;100369.66;;;1.37;100.00
61786;BME280;47692;53.714;11.372;2022-12-07T04:49:53;100361.06;;;1.37;100.00
61786;BME280;47692;53.714;11.372;2022-12-07T04:52:18;100356.75;;;1.33;100.00
61786;BME280;47692;53.714;11.372;2022-12-07T04:54:43;100354.97;;;1.25;100.00
61786;BME280;47692;53.714;11.372;2022-12-07T04:57:08;100354.91;;;1.19;100.00
61786;BME280;47692;53.714;11.372;2022-12-07T04:59:34;100358.38;;;1.23;100.00
61786;BME280;47692;53.714;11.372;2022-12-07T05:01:59;100354.94;;;1.22;100.00
61786;BME280;47692;53.714;11.372;2022-12-07T05:04:24;100362.59;;;1.15;100.00
61786;BME280;47692;53.714;11.372;2022-12-07T05:06:49;100353.97;;;1.11;100.00
61786;BME280;47692;53.714;11.372;2022-12-07T05:09:15;100355.66;;;1.09;100.00
61786;BME280;47692;53.714;11.372;2022-12-07T05:11:40;100359.91;;;1.04;100.00
61786;BME280;47692;53.714;11.372;2022-12-07T05:14:07;100351.34;;;1.05;100.00
61786;BME280;47692;53.714;11.372;2022-12-07T05:16:33;100352.19;;;1.02;100.00
61786;BME280;47692;53.714;11.372;2022-12-07T05:18:58;100362.47;;;1.02;100.00
61786;BME280;47692;53.714;11.372;2022-12-07T05:21:24;100368.44;;;1.00;100.00
61786;BME280;47692;53.714;11.372;2022-12-07T05:23:49;100358.16;;;1.00;100.00
61786;BME280;47692;53.714;11.372;2022-12-07T05:26:14;100358.09;;;0.96;100.00
61786;BME280;47692;53.714;11.372;2022-12-07T05:28:40;100364.13;;;0.99;100.00
61786;BME280;47692;53.714;11.372;2022-12-07T05:31:05;100365.06;;;1.07;100.00
61786;BME280;47692;53.714;11.372;2022-12-07T05:33:30;100361.63;;;1.05;100.00
61786;BME280;47692;53.714;11.372;2022-12-07T05:35:56;100359.91;;;1.04;100.00
61786;BME280;47692;53.714;11.372;2022-12-07T05:38:21;100359.91;;;1.04;100.00
61786;BME280;47692;53.714;11.372;2022-12-07T05:40:46;100351.34;;;1.08;100.00
61786;BME280;47692;53.714;11.372;2022-12-07T05:43:11;100357.34;;;1.05;100.00
61786;BME280;47692;53.714;11.372;2022-12-07T05:45:37;100363.31;;;1.03;100.00
61786;BME280;47692;53.714;11.372;2022-12-07T05:48:02;100366.84;;;1.11;100.00
61786;BME280;47692;53.714;11.372;2022-12-07T05:50:27;100366.78;;;1.08;100.00
61786;BME280;47692;53.714;11.372;2022-12-07T05:52:53;100371.91;;;1.05;100.00
61786;BME280;47692;53.714;11.372;2022-12-07T05:55:18;100378.78;;;1.06;100.00
61786;BME280;47692;53.714;11.372;2022-12-07T05:57:44;100375.31;;;1.04;100.00
61786;BME280;47692;53.714;11.372;2022-12-07T06:00:29;100375.34;;;1.07;100.00
61786;BME280;47692;53.714;11.372;2022-12-07T06:02:54;100380.47;;;1.07;100.00
61786;BME280;47692;53.714;11.372;2022-12-07T06:05:19;100368.50;;;1.06;100.00
61786;BME280;47692;53.714;11.372;2022-12-07T06:07:45;100385.59;;;1.04;100.00
61786;BME280;47692;53.714;11.372;2022-12-07T06:10:10;100382.22;;;1.06;100.00
61786;BME280;47692;53.714;11.372;2022-12-07T06:12:35;100388.13;;;1.01;100.00
61786;BME280;47692;53.714;11.372;2022-12-07T06:15:03;100393.31;;;1.04;100.00
61786;BME280;47692;53.714;11.372;2022-12-07T06:17:28;100388.13;;;0.99;100.00
61786;BME280;47692;53.714;11.372;2022-12-07T06:19:54;100392.34;;;0.94;100.00
61786;BME280;47692;53.714;11.372;2022-12-07T06:22:19;100399.22;;;0.96;100.00
61786;BME280;47692;53.714;11.372;2022-12-07T06:24:44;100392.34;;;0.94;100.00
61786;BME280;47692;53.714;11.372;2022-12-07T06:27:10;100393.19;;;0.91;100.00
61786;BME280;47692;53.714;11.372;2022-12-07T06:29:35;100401.78;;;0.93;100.00
61786;BME280;47692;53.714;11.372;2022-12-07T06:32:00;100394.84;;;0.86;100.00
61786;BME280;47692;53.714;11.372;2022-12-07T06:34:26;100401.72;;;0.87;100.00
61786;BME280;47692;53.714;11.372;2022-12-07T06:36:52;100405.97;;;0.85;100.00
61786;BME280;47692;53.714;11.372;2022-12-07T06:39:20;100414.53;;;0.86;100.00
61786;BME280;47692;53.714;11.372;2022-12-07T06:41:45;100404.97;;;0.75;100.00
61786;BME280;47692;53.714;11.372;2022-12-07T06:44:11;100401.44;;;0.66;100.00
61786;BME280;47692;53.714;11.372;2022-12-07T06:46:36;100405.72;;;0.63;100.00
61786;BME280;47692;53.714;11.372;2022-12-07T06:49:02;100410.75;;;0.57;100.00
61786;BME280;47692;53.714;11.372;2022-12-07T06:51:28;100420.13;;;0.54;100.00
61786;BME280;47692;53.714;11.372;2022-12-07T06:53:53;100416.56;;;0.42;100.00
61786;BME280;47692;53.714;11.372;2022-12-07T06:56:18;100411.41;;;0.42;100.00
61786;BME280;47692;53.714;11.372;2022-12-07T06:58:44;100416.44;;;0.35;100.00
61786;BME280;47692;53.714;11.372;2022-12-07T07:01:13;100419.81;;;0.32;100.00
61786;BME280;47692;53.714;11.372;2022-12-07T07:03:40;100418.81;;;0.22;100.00
61786;BME280;47692;53.714;11.372;2022-12-07T07:06:06;100414.56;;;0.24;100.00
61786;BME280;47692;53.714;11.372;2022-12-07T07:08:33;100415.41;;;0.23;100.00
61786;BME280;47692;53.714;11.372;2022-12-07T07:10:58;100417.13;;;0.21;100.00
61786;BME280;47692;53.714;11.372;2022-12-07T07:13:23;100415.41;;;0.23;100.00
61786;BME280;47692;53.714;11.372;2022-12-07T07:15:49;100416.28;;;0.24;100.00
61786;BME280;47692;53.714;11.372;2022-12-07T07:18:14;100423.91;;;0.18;100.00
61786;BME280;47692;53.714;11.372;2022-12-07T07:20:39;100424.84;;;0.23;100.00
61786;BME280;47692;53.714;11.372;2022-12-07T07:23:05;100420.47;;;0.17;100.00
61786;BME280;47692;53.714;11.372;2022-12-07T07:25:31;100423.75;;;0.10;100.00
61786;BME280;47692;53.714;11.372;2022-12-07T07:27:56;100431.34;;;0.01;100.00
61786;BME280;47692;53.714;11.372;2022-12-07T07:30:22;100428.59;;;-0.09;100.00
61786;BME280;47692;53.714;11.372;2022-12-07T07:32:47;100425.19;;;-0.11;100.00
61786;BME280;47692;53.714;11.372;2022-12-07T07:35:12;100428.50;;;-0.15;100.00
61786;BME280;47692;53.714;11.372;2022-12-07T07:37:39;100427.66;;;-0.15;100.00
61786;BME280;47692;53.714;11.372;2022-12-07T07:40:05;100431.06;;;-0.15;100.00
61786;BME280;47692;53.714;11.372;2022-12-07T07:42:30;100430.03;;;-0.26;100.00
61786;BME280;47692;53.714;11.372;2022-12-07T07:44:55;100428.22;;;-0.34;100.00
61786;BME280;47692;53.714;11.372;2022-12-07T07:47:21;100426.59;;;-0.28;100.00
61786;BME280;47692;53.714;11.372;2022-12-07T07:49:46;100429.81;;;-0.39;100.00
61786;BME280;47692;53.714;11.372;2022-12-07T07:52:11;100432.34;;;-0.42;100.00
61786;BME280;47692;53.714;11.372;2022-12-07T07:54:36;100428.16;;;-0.37;100.00
61786;BME280;47692;53.714;11.372;2022-12-07T07:57:02;100438.31;;;-0.43;100.00
61786;BME280;47692;53.714;11.372;2022-12-07T07:59:27;100438.38;;;-0.40;100.00
61786;BME280;47692;53.714;11.372;2022-12-07T08:01:52;100434.94;;;-0.39;100.00
61786;BME280;47692;53.714;11.372;2022-12-07T08:04:17;100427.22;;;-0.42;100.00
61786;BME280;47692;53.714;11.372;2022-12-07T08:06:43;100434.84;;;-0.45;100.00
61786;BME280;47692;53.714;11.372;2022-12-07T08:09:08;100433.25;;;-0.40;100.00
61786;BME280;47692;53.714;11.372;2022-12-07T08:11:34;100433.28;;;-0.37;100.00
61786;BME280;47692;53.714;11.372;2022-12-07T08:14:00;100434.25;;;-0.30;100.00
61786;BME280;47692;53.714;11.372;2022-12-07T08:16:25;100440.28;;;-0.28;100.00
61786;BME280;47692;53.714;11.372;2022-12-07T08:18:51;100435.13;;;-0.29;100.00
61786;BME280;47692;53.714;11.372;2022-12-07T08:21:16;100439.47;;;-0.25;100.00
61786;BME280;47692;53.714;11.372;2022-12-07T08:23:41;100436.09;;;-0.23;100.00
61786;BME280;47692;53.714;11.372;2022-12-07T08:26:12;100440.41;;;-0.20;100.00
61786;BME280;47692;53.714;11.372;2022-12-07T08:28:38;100442.22;;;-0.16;100.00
61786;BME280;47692;53.714;11.372;2022-12-07T08:31:05;100438.78;;;-0.15;100.00
61786;BME280;47692;53.714;11.372;2022-12-07T08:33:31;100433.63;;;-0.15;100.00
61786;BME280;47692;53.714;11.372;2022-12-07T08:36:01;100443.91;;;-0.15;100.00
61786;BME280;47692;53.714;11.372;2022-12-07T08:38:26;100439.63;;;-0.16;100.00
61786;BME280;47692;53.714;11.372;2022-12-07T08:40:56;100438.78;;;-0.15;100.00
61786;BME280;47692;53.714;11.372;2022-12-07T08:43:21;100433.75;;;-0.09;100.00
61786;BME280;47692;53.714;11.372;2022-12-07T08:45:50;100433.75;;;-0.09;100.00
61786;BME280;47692;53.714;11.372;2022-12-07T08:48:17;100440.59;;;-0.08;100.00
61786;BME280;47692;53.714;11.372;2022-12-07T08:50:47;100431.31;;;-0.01;100.00
61786;BME280;47692;53.714;11.372;2022-12-07T08:53:13;100434.00;;;0.05;100.00
61786;BME280;47692;53.714;11.372;2022-12-07T08:55:38;100431.50;;;0.11;100.00
61786;BME280;47692;53.714;11.372;2022-12-07T08:58:04;100426.31;;;0.07;100.00
61786;BME280;47692;53.714;11.372;2022-12-07T09:00:29;100423.75;;;0.10;100.00
61786;BME280;47692;53.714;11.372;2022-12-07T09:02:54;100429.06;;;0.19;100.00
61786;BME280;47692;53.714;11.372;2022-12-07T09:05:20;100436.03;;;0.26;100.00
61786;BME280;47692;53.714;11.372;2022-12-07T09:07:48;100429.19;;;0.28;100.00
61786;BME280;47692;53.714;11.372;2022-12-07T09:10:15;100436.03;;;0.29;100.00
61786;BME280;47692;53.714;11.372;2022-12-07T09:12:40;100425.84;;;0.32;100.00
61786;BME280;47692;53.714;11.372;2022-12-07T09:15:06;100426.66;;;0.30;100.00
61786;BME280;47692;53.714;11.372;2022-12-07T09:17:34;100425.75;;;0.26;100.00
61786;BME280;47692;53.714;11.372;2022-12-07T09:20:00;100423.28;;;0.32;100.00
61786;BME280;47692;53.714;11.372;2022-12-07T09:22:29;100419.00;;;0.35;100.00
61786;BME280;47692;53.714;11.372;2022-12-07T09:24:55;100409.72;;;0.43;100.00
61786;BME280;47692;53.714;11.372;2022-12-07T09:27:20;100414.84;;;0.44;100.00
61786;BME280;47692;53.714;11.372;2022-12-07T09:29:45;100410.63;;;0.46;100.00
61786;BME280;47692;53.714;11.372;2022-12-07T09:32:11;100419.31;;;0.58;100.00
61786;BME280;47692;53.714;11.372;2022-12-07T09:34:36;100417.69;;;0.64;100.00
61786;BME280;47692;53.714;11.372;2022-12-07T09:37:01;100414.28;;;0.66;100.00
61786;BME280;47692;53.714;11.372;2022-12-07T09:39:28;100416.88;;;0.67;100.00
61786;BME280;47692;53.714;11.372;2022-12-07T09:41:53;100414.34;;;0.69;100.00
61786;BME280;47692;53.714;11.372;2022-12-07T09:44:23;100416.88;;;0.67;100.00
61786;BME280;47692;53.714;11.372;2022-12-07T09:46:49;100410.94;;;0.73;100.00
61786;BME280;47692;53.714;11.372;2022-12-07T09:49:23;100417.75;;;0.71;100.00
61786;BME280;47692;53.714;11.372;2022-12-07T09:54:35;100417.84;;;0.77;100.00
61786;BME280;47692;53.714;11.372;2022-12-07T09:57:02;100413.56;;;0.76;100.00
61786;BME280;47692;53.714;11.372;2022-12-07T09:59:27;100412.75;;;0.80;100.00
61786;BME280;47692;53.714;11.372;2022-12-07T10:01:52;100414.50;;;0.83;100.00
61786;BME280;47692;53.714;11.372;2022-12-07T10:04:20;100412.84;;;0.89;100.00
61786;BME280;47692;53.714;11.372;2022-12-07T10:06:46;100402.63;;;0.92;100.00
61786;BME280;47692;53.714;11.372;2022-12-07T10:09:17;100401.84;;;1.00;100.00
61786;BME280;47692;53.714;11.372;2022-12-07T10:14:28;100401.88;;;1.01;100.00
61786;BME280;47692;53.714;11.372;2022-12-07T10:16:54;100412.13;;;1.00;100.00
61786;BME280;47692;53.714;11.372;2022-12-07T10:19:30;100404.44;;;1.03;100.00
61786;BME280;47692;53.714;11.372;2022-12-07T10:22:05;100403.69;;;1.10;100.00
61786;BME280;47692;53.714;11.372;2022-12-07T10:24:31;100407.94;;;1.08;100.00
61786;BME280;47692;53.714;11.372;2022-12-07T10:26:56;100413.97;;;1.10;100.00
61786;BME280;47692;53.714;11.372;2022-12-07T10:29:29;100414.03;;;1.15;100.00
61786;BME280;47692;53.714;11.372;2022-12-07T10:31:59;100415.78;;;1.19;100.00
61786;BME280;47692;53.714;11.372;2022-12-07T10:34:28;100406.34;;;1.19;100.00
61786;BME280;47692;53.714;11.372;2022-12-07T10:39:51;100415.78;;;1.20;100.00
61786;BME280;47692;53.714;11.372;2022-12-07T10:42:28;100409.84;;;1.27;100.00
61786;BME280;47692;53.714;11.372;2022-12-07T10:45:13;100399.50;;;1.21;100.00
61786;BME280;47692;53.714;11.372;2022-12-07T10:48:05;100402.19;;;1.34;100.00
61786;BME280;47692;53.714;11.372;2022-12-07T10:50:56;100407.28;;;1.29;100.00
61786;BME280;47692;53.714;11.372;2022-12-07T10:56:29;100397.06;;;1.34;99.79
61786;BME280;47692;53.714;11.372;2022-12-07T11:01:52;100396.28;;;1.41;99.00
61786;BME280;47692;53.714;11.372;2022-12-07T11:04:29;100387.78;;;1.48;98.86
61786;BME280;47692;53.714;11.372;2022-12-07T11:07:14;100386.91;;;1.49;97.40
61786;BME280;47692;53.714;11.372;2022-12-07T11:10:02;100384.38;;;1.54;95.93
61786;BME280;47692;53.714;11.372;2022-12-07T11:18:23;100379.28;;;1.58;92.43
61786;BME280;47692;53.714;11.372;2022-12-07T11:23:54;100376.81;;;1.71;92.17
61786;BME280;47692;53.714;11.372;2022-12-07T11:29:09;100367.44;;;1.82;91.84
61786;BME280;47692;53.714;11.372;2022-12-07T11:34:36;100364.09;;;1.89;89.59
61786;BME280;47692;53.714;11.372;2022-12-07T11:37:09;100363.19;;;1.89;89.01
61786;BME280;47692;53.714;11.372;2022-12-07T11:39:47;100361.53;;;1.94;88.32
61786;BME280;47692;53.714;11.372;2022-12-07T11:42:26;100364.09;;;1.92;87.97
61786;BME280;47692;53.714;11.372;2022-12-07T11:44:57;100354.66;;;1.94;86.84
61786;BME280;47692;53.714;11.372;2022-12-07T11:47:30;100358.13;;;1.98;86.15
61786;BME280;47692;53.714;11.372;2022-12-07T11:50:16;100354.72;;;1.99;85.58
61786;BME280;47692;53.714;11.372;2022-12-07T11:55:44;100358.13;;;1.98;85.27
61786;BME280;47692;53.714;11.372;2022-12-07T11:58:20;100352.09;;;1.98;86.40
61786;BME280;47692;53.714;11.372;2022-12-07T12:00:51;100346.19;;;2.09;87.15
61786;BME280;47692;53.714;11.372;2022-12-07T12:03:28;100353.06;;;2.14;85.86
61786;BME280;47692;53.714;11.372;2022-12-07T12:05:56;100353.97;;;2.20;86.17
61786;BME280;47692;53.714;11.372;2022-12-07T12:08:28;100337.63;;;2.15;85.68
61786;BME280;47692;53.714;11.372;2022-12-07T12:11:16;100348.78;;;2.14;85.00
61786;BME280;47692;53.714;11.372;2022-12-07T12:14:02;100345.38;;;2.20;86.27
61786;BME280;47692;53.714;11.372;2022-12-07T12:16:45;100340.19;;;2.12;84.98
61786;BME280;47692;53.714;11.372;2022-12-07T12:19:24;100335.00;;;2.03;84.71
61786;BME280;47692;53.714;11.372;2022-12-07T12:21:57;100339.34;;;2.13;86.11
61786;BME280;47692;53.714;11.372;2022-12-07T12:24:29;100337.59;;;2.12;84.95
61786;BME280;47692;53.714;11.372;2022-12-07T12:27:24;100343.59;;;2.11;85.20
61786;BME280;47692;53.714;11.372;2022-12-07T12:29:56;100338.41;;;2.05;83.26
61786;BME280;47692;53.714;11.372;2022-12-07T12:32:38;100338.38;;;1.96;83.65
61786;BME280;47692;53.714;11.372;2022-12-07T12:35:36;100333.19;;;1.92;83.52
61786;BME280;47692;53.714;11.372;2022-12-07T12:38:28;100336.59;;;1.88;83.79
61786;BME280;47692;53.714;11.372;2022-12-07T12:40:55;100321.16;;;1.91;84.79
61786;BME280;47692;53.714;11.372;2022-12-07T12:43:44;100328.03;;;1.89;84.70
61786;BME280;47692;53.714;11.372;2022-12-07T12:51:47;100324.63;;;1.93;83.81
61786;BME280;47692;53.714;11.372;2022-12-07T12:54:34;100328.84;;;1.81;82.78
61786;BME280;47692;53.714;11.372;2022-12-07T12:57:24;100326.22;;;1.74;83.64
61786;BME280;47692;53.714;11.372;2022-12-07T13:02:36;100322.72;;;1.68;83.47
61786;BME280;47692;53.714;11.372;2022-12-07T13:05:18;100322.72;;;1.68;83.61
61786;BME280;47692;53.714;11.372;2022-12-07T13:07:49;100323.56;;;1.65;83.40
61786;BME280;47692;53.714;11.372;2022-12-07T13:23:58;100330.34;;;1.54;83.77
61786;BME280;47692;53.714;11.372;2022-12-07T13:26:41;100321.78;;;1.52;83.60
61786;BME280;47692;53.714;11.372;2022-12-07T13:31:44;100325.09;;;1.41;83.49
61786;BME280;47692;53.714;11.372;2022-12-07T13:34:31;100327.66;;;1.43;83.37
61786;BME280;47692;53.714;11.372;2022-12-07T13:37:01;100332.84;;;1.46;83.96
61786;BME280;47692;53.714;11.372;2022-12-07T13:39:28;100337.94;;;1.40;83.45
61786;BME280;47692;53.714;11.372;2022-12-07T13:41:55;100339.69;;;1.44;83.50
61786;BME280;47692;53.714;11.372;2022-12-07T13:44:22;100350.81;;;1.43;83.77
61786;BME280;47692;53.714;11.372;2022-12-07T13:46:57;100346.50;;;1.39;84.09
61786;BME280;47692;53.714;11.372;2022-12-07T13:49:29;100337.97;;;1.43;84.09
61786;BME280;47692;53.714;11.372;2022-12-07T13:52:17;100339.69;;;1.44;84.41
61786;BME280;47692;53.714;11.372;2022-12-07T13:54:49;100348.19;;;1.37;83.94
61786;BME280;47692;53.714;11.372;2022-12-07T13:57:16;100343.06;;;1.37;83.76
61786;BME280;47692;53.714;11.372;2022-12-07T13:59:42;100356.75;;;1.33;83.78
61786;BME280;47692;53.714;11.372;2022-12-07T14:02:21;100349.03;;;1.34;84.51
61786;BME280;47692;53.714;11.372;2022-12-07T14:04:49;100356.72;;;1.29;83.49
61786;BME280;47692;53.714;11.372;2022-12-07T14:07:27;100358.28;;;1.15;83.38